»·PEaware :: N215JB KBLI-C72

N215JB :: KBLI-C72

FLIGHT INFORMATION

Flight Status: Arrived
Operator: Privately registered:
United States
More flights under this callsign
Pilot: Jake B. (38070)
Aircraft: CESSNA 172 SKYHAWK
(C172)
More flights by this aircraft type
Origin: KBLI Bellingham Intl
United States
Destination: C72 Cross Winds
United States
More flights between these airports :: More routes between these airports
Route:
File this flight plan on PilotEdge
Remarks:
Altitude:
(Current/Filed)
9,500ft
Speed:
(Current/Filed)
110kts
Departed: 16-Mar-23 01:23 PM
Arrived: 16-Mar-23 03:24 PM
Distance/Time
Traveled:
205nm/2:01
Distance/Time
To Go:
Arrived

Flight Plot

Page will automatically refresh every two minutes.

Flight plan parsing failed; only flown route is shown


Map Options




Map Legend


Flown Route
Filed Route
Departure Airport
Arrival Airport
Navaid (VOR, NDB)
Fix

Horizontal Profiles

Position Reports

Time Latitude Longitude Heading Altitude Ground
Speed
16-Mar-23 13:11 48.792989 -122.533972 326 170ft 0kts
16-Mar-23 13:12 48.792989 -122.533972 326 170ft 0kts
16-Mar-23 13:13 48.792989 -122.533972 327 170ft 0kts
16-Mar-23 13:14 48.792989 -122.533972 327 170ft 0kts
16-Mar-23 13:15 48.792989 -122.533972 327 170ft 0kts
16-Mar-23 13:15 48.792989 -122.533972 327 170ft 0kts
16-Mar-23 13:17 48.792989 -122.533972 327 170ft 0kts
16-Mar-23 13:18 48.793062 -122.534017 332 170ft 5kts
16-Mar-23 13:19 48.791174 -122.535695 204 171ft 14kts
16-Mar-23 13:20 48.787262 -122.535823 173 173ft 13kts
16-Mar-23 13:20 48.783931 -122.535621 195 174ft 15kts
16-Mar-23 13:21 48.783650 -122.536347 269 174ft 3kts
16-Mar-23 13:23 48.798874 -122.537516 6 629ft 83kts
16-Mar-23 13:24 48.793005 -122.557411 178 1311ft 94kts
16-Mar-23 13:24 48.784792 -122.533199 80 2054ft 90kts
16-Mar-23 13:25 48.778184 -122.498353 114 2979ft 82kts
16-Mar-23 13:26 48.768166 -122.469958 116 3801ft 74kts
16-Mar-23 13:27 48.757174 -122.439768 119 4662ft 89kts
16-Mar-23 13:29 48.744751 -122.405622 120 5581ft 72kts
16-Mar-23 13:29 48.735854 -122.381419 120 6200ft 80kts
16-Mar-23 13:30 48.726054 -122.354516 121 6811ft 73kts
16-Mar-23 13:31 48.715275 -122.325178 121 7348ft 93kts
16-Mar-23 13:32 48.702579 -122.290639 122 7963ft 87kts
16-Mar-23 13:33 48.691383 -122.260105 122 8563ft 82kts
16-Mar-23 13:34 48.680790 -122.231207 123 9107ft 78kts
16-Mar-23 13:35 48.669521 -122.200660 123 9508ft 94kts
16-Mar-23 13:36 48.655074 -122.161624 122 9507ft 111kts
16-Mar-23 13:37 48.640060 -122.120941 122 9499ft 106kts
16-Mar-23 13:38 48.625525 -122.081651 122 9506ft 113kts
16-Mar-23 13:39 48.611029 -122.042468 123 9489ft 105kts
16-Mar-23 13:40 48.596918 -122.004404 123 9483ft 101kts
16-Mar-23 13:41 48.583703 -121.968790 123 9490ft 97kts
16-Mar-23 13:42 48.570040 -121.932079 123 9493ft 104kts
16-Mar-23 13:43 48.556506 -121.895672 122 9492ft 96kts
16-Mar-23 13:44 48.542946 -121.859291 122 9502ft 105kts
16-Mar-23 13:45 48.527954 -121.819181 122 9503ft 109kts
16-Mar-23 13:46 48.513523 -121.780587 122 9492ft 107kts
16-Mar-23 13:47 48.501566 -121.739011 109 9501ft 112kts
16-Mar-23 13:48 48.493891 -121.695073 109 9487ft 103kts
16-Mar-23 13:49 48.486199 -121.650740 109 9498ft 112kts
16-Mar-23 13:50 48.478339 -121.605495 108 9498ft 113kts
16-Mar-23 13:51 48.470318 -121.559338 108 9507ft 114kts
16-Mar-23 13:52 48.462279 -121.513152 109 9488ft 108kts
16-Mar-23 13:53 48.454781 -121.470319 109 9494ft 104kts
16-Mar-23 13:54 48.447136 -121.426748 109 9510ft 113kts
16-Mar-23 13:55 48.435075 -121.383249 119 9514ft 111kts
16-Mar-23 13:56 48.419676 -121.333939 115 9500ft 139kts
16-Mar-23 13:57 48.402938 -121.280517 113 9501ft 137kts
16-Mar-23 13:58 48.387549 -121.231272 114 9500ft 116kts
16-Mar-23 13:59 48.369908 -121.197859 146 9497ft 99kts
16-Mar-23 14:00 48.347824 -121.172446 144 9535ft 114kts
16-Mar-23 14:01 48.323338 -121.144278 145 9534ft 110kts
16-Mar-23 14:02 48.299049 -121.116409 146 9531ft 106kts
16-Mar-23 14:03 48.274313 -121.088090 146 9538ft 110kts
16-Mar-23 14:04 48.251180 -121.061582 145 9530ft 102kts
16-Mar-23 14:05 48.226913 -121.033882 145 9549ft 113kts
16-Mar-23 14:06 48.212651 -120.996834 119 9537ft 99kts
16-Mar-23 14:07 48.201100 -120.960798 120 9572ft 115kts
16-Mar-23 14:08 48.187096 -120.917269 118 9562ft 123kts
16-Mar-23 14:09 48.172825 -120.872923 119 9568ft 127kts
16-Mar-23 14:10 48.157197 -120.824299 121 9541ft 119kts
16-Mar-23 14:11 48.142916 -120.779908 118 9560ft 115kts
16-Mar-23 14:12 48.129138 -120.737315 121 9557ft 113kts
16-Mar-23 14:13 48.115240 -120.694224 118 9583ft 115kts
16-Mar-23 14:14 48.100866 -120.649977 117 9572ft 116kts
16-Mar-23 14:15 48.086522 -120.605821 118 9564ft 121kts
16-Mar-23 14:16 48.076075 -120.556526 96 9572ft 130kts
16-Mar-23 14:17 48.073173 -120.507484 96 9569ft 111kts
16-Mar-23 14:18 48.070233 -120.460126 96 9581ft 116kts
16-Mar-23 14:19 48.066947 -120.407937 96 9598ft 134kts
16-Mar-23 14:20 48.063590 -120.354395 96 9578ft 125kts
16-Mar-23 14:21 48.060437 -120.304494 96 9574ft 118kts
16-Mar-23 14:22 48.057350 -120.256302 95 9577ft 118kts
16-Mar-23 14:23 48.054268 -120.207827 96 9578ft 115kts
16-Mar-23 14:24 48.051104 -120.159251 95 9579ft 119kts
16-Mar-23 14:25 48.047961 -120.111182 94 9586ft 116kts
16-Mar-23 14:26 48.044816 -120.062929 93 9576ft 113kts
16-Mar-23 14:27 48.041595 -120.014288 94 9529ft 124kts
16-Mar-23 14:28 48.038544 -119.964100 93 9536ft 124kts
16-Mar-23 14:29 48.035532 -119.914018 93 9520ft 120kts
16-Mar-23 14:30 48.032431 -119.863270 93 9526ft 126kts
16-Mar-23 14:31 48.029271 -119.811915 92 9517ft 122kts
16-Mar-23 14:32 48.026108 -119.760780 92 9522ft 122kts
16-Mar-23 14:33 48.023012 -119.710957 91 9509ft 118kts
16-Mar-23 14:34 48.019918 -119.661694 91 9519ft 120kts
16-Mar-23 14:35 48.016690 -119.610625 92 9517ft 125kts
16-Mar-23 14:36 48.013374 -119.558580 91 9519ft 128kts
16-Mar-23 14:37 48.011514 -119.506925 89 9509ft 122kts
16-Mar-23 14:38 48.009651 -119.456479 88 9510ft 121kts
16-Mar-23 14:39 48.007767 -119.406243 89 9518ft 121kts
16-Mar-23 14:40 48.005859 -119.355969 89 9520ft 122kts
16-Mar-23 14:41 48.003922 -119.305513 88 9516ft 122kts
16-Mar-23 14:42 48.001944 -119.254721 88 9516ft 122kts
16-Mar-23 14:43 47.999942 -119.203749 88 9519ft 124kts
16-Mar-23 14:44 47.997908 -119.152617 88 9518ft 123kts
16-Mar-23 14:45 47.995831 -119.101121 88 9513ft 125kts
16-Mar-23 14:46 47.993733 -119.049460 88 9512ft 124kts
16-Mar-23 14:47 47.991655 -118.997574 82 9515ft 122kts
16-Mar-23 14:48 47.995419 -118.948571 78 9516ft 123kts
16-Mar-23 14:49 47.999098 -118.896891 78 9517ft 125kts
16-Mar-23 14:50 48.002783 -118.844604 78 9515ft 128kts
16-Mar-23 14:51 48.006459 -118.792396 78 9511ft 126kts
16-Mar-23 14:52 48.010025 -118.741594 78 9520ft 127kts
16-Mar-23 14:53 48.013587 -118.690258 77 9502ft 121kts
16-Mar-23 14:54 48.017201 -118.638003 78 9515ft 129kts
16-Mar-23 14:55 48.020862 -118.584489 78 9527ft 129kts
16-Mar-23 14:56 48.024100 -118.537092 85 9498ft 113kts
16-Mar-23 14:57 48.027257 -118.490505 85 9508ft 117kts
16-Mar-23 14:58 48.030439 -118.442990 85 9507ft 116kts
16-Mar-23 14:59 48.033678 -118.394719 85 9502ft 117kts
16-Mar-23 15:00 48.037206 -118.341619 80 9522ft 129kts
16-Mar-23 15:01 48.040723 -118.288422 78 9511ft 127kts
16-Mar-23 15:02 48.044229 -118.235474 80 9523ft 131kts
16-Mar-23 15:03 48.047733 -118.180727 80 9530ft 129kts
16-Mar-23 15:04 48.051241 -118.126705 79 9515ft 132kts
16-Mar-23 15:05 48.054736 -118.072294 80 9533ft 139kts
16-Mar-23 15:06 48.058115 -118.019331 80 9525ft 124kts
16-Mar-23 15:07 48.061452 -117.966598 79 9533ft 131kts
16-Mar-23 15:08 48.056872 -117.913536 104 9519ft 130kts
16-Mar-23 15:09 48.047013 -117.863009 105 9215ft 124kts
16-Mar-23 15:10 48.036766 -117.810854 106 8262ft 130kts
16-Mar-23 15:11 48.026323 -117.757703 106 7340ft 132kts
16-Mar-23 15:12 48.016131 -117.706103 106 6379ft 127kts
16-Mar-23 15:13 48.006151 -117.655532 107 5449ft 127kts
16-Mar-23 15:14 47.996470 -117.606679 106 4466ft 119kts
16-Mar-23 15:15 47.986962 -117.558731 106 3688ft 116kts
16-Mar-23 15:16 47.971626 -117.518525 143 3678ft 120kts
16-Mar-23 15:17 47.950911 -117.524064 273 3269ft 105kts
16-Mar-23 15:18 47.972538 -117.533786 13 3235ft 80kts
16-Mar-23 15:19 47.997200 -117.519942 15 3186ft 107kts
16-Mar-23 15:20 47.989275 -117.535649 201 3176ft 99kts
16-Mar-23 15:21 47.968140 -117.520753 91 3014ft 92kts
16-Mar-23 15:22 47.980796 -117.529482 323 2206ft 46kts
16-Mar-23 15:23 47.982019 -117.530654 350 2207ft 0kts
16-Mar-23 15:24 47.982019 -117.530654 350 2207ft 0kts
16-Mar-23 15:25 47.982019 -117.530654 350 2207ft 0kts

Navigation Log

Ident Type
Flight plan parsing failed, navigation log unavailable